createdAt,value
2023-05-17T01:13:50.185Z,6.72
2023-05-17T01:16:19.775Z,6.68
2023-05-17T01:18:58.538Z,4.93
2023-05-17T01:21:35.437Z,5.35
2023-05-17T01:24:23.226Z,4.25
2023-05-17T01:26:53.405Z,2.75
2023-05-17T01:29:25.774Z,3.30
2023-05-17T01:31:53.840Z,2.72
2023-05-17T01:34:28.753Z,3.75
2023-05-17T01:36:57.654Z,3.17
2023-05-17T01:39:25.621Z,2.65
2023-05-17T01:42:05.827Z,3.30
2023-05-17T01:44:42.221Z,2.55
2023-05-17T01:47:13.142Z,2.30
2023-05-17T01:49:41.799Z,3.10
2023-05-17T01:52:19.242Z,2.13
2023-05-17T01:54:52.876Z,2.47
2023-05-17T01:57:26.773Z,4.38
2023-05-17T01:59:54.610Z,4.68
2023-05-17T02:02:22.972Z,3.22
2023-05-17T02:04:53.897Z,2.63
2023-05-17T02:07:22.358Z,3.30
2023-05-17T02:09:50.058Z,2.47
2023-05-17T02:12:17.689Z,2.83
2023-05-17T02:14:45.413Z,2.60
2023-05-17T02:17:13.615Z,2.88
2023-05-17T02:19:41.671Z,2.28
2023-05-17T02:22:09.478Z,2.75
2023-05-17T02:24:37.284Z,3.60
2023-05-17T02:27:04.994Z,2.40
2023-05-17T02:29:32.854Z,2.78
2023-05-17T02:32:00.787Z,3.25
2023-05-17T02:34:28.363Z,3.05
2023-05-17T02:36:58.586Z,3.63
2023-05-17T02:39:26.210Z,3.50
2023-05-17T02:41:54.224Z,3.65
2023-05-17T02:44:21.950Z,3.63
2023-05-17T02:46:49.636Z,4.28
2023-05-17T02:49:17.516Z,5.63
2023-05-17T02:51:45.088Z,3.55
2023-05-17T02:54:12.717Z,2.92
2023-05-17T02:56:40.305Z,3.17
2023-05-17T02:59:07.790Z,3.05
2023-05-17T03:01:36.174Z,2.88
2023-05-17T03:04:03.009Z,3.20
2023-05-17T03:06:31.461Z,2.67
2023-05-17T03:08:59.178Z,3.40
2023-05-17T03:11:26.845Z,3.17
2023-05-17T03:13:53.338Z,2.75
2023-05-17T03:16:19.941Z,2.78
2023-05-17T03:18:47.680Z,3.55
2023-05-17T03:21:14.234Z,3.05
2023-05-17T03:23:41.946Z,3.00
2023-05-17T03:26:08.397Z,3.47
2023-05-17T03:28:38.532Z,3.40
2023-05-17T03:31:06.532Z,3.92
2023-05-17T03:33:34.369Z,2.85
2023-05-17T03:36:02.185Z,2.72
2023-05-17T03:38:29.833Z,3.10
2023-05-17T03:40:57.575Z,4.63
2023-05-17T03:43:25.541Z,2.83
2023-05-17T03:45:53.457Z,2.80
2023-05-17T03:48:21.029Z,3.35
2023-05-17T03:50:48.932Z,3.85
2023-05-17T03:53:15.437Z,3.13
2023-05-17T03:55:43.460Z,3.58
2023-05-17T03:58:11.579Z,3.78
2023-05-17T04:00:38.366Z,5.18
2023-05-17T04:03:06.164Z,5.47
2023-05-17T04:05:32.995Z,4.60
2023-05-17T04:08:01.433Z,6.38
2023-05-17T04:10:27.955Z,5.38
2023-05-17T04:12:55.501Z,9.75
2023-05-17T04:15:23.436Z,6.25
2023-05-17T04:17:51.493Z,4.65
2023-05-17T04:20:19.186Z,4.25
2023-05-17T04:22:45.672Z,4.45
2023-05-17T04:25:12.218Z,4.30
2023-05-17T04:27:39.002Z,4.20
2023-05-17T04:30:05.989Z,3.70
2023-05-17T04:32:34.366Z,3.50
2023-05-17T04:35:01.111Z,3.65
2023-05-17T04:37:27.688Z,4.32
2023-05-17T04:39:54.187Z,3.50
2023-05-17T04:42:20.719Z,3.20
2023-05-17T04:44:47.198Z,4.18
2023-05-17T04:47:13.656Z,4.03
2023-05-17T04:49:40.200Z,4.18
2023-05-17T04:52:06.886Z,3.28
2023-05-17T04:54:33.381Z,4.05
2023-05-17T04:56:59.830Z,3.80
2023-05-17T04:59:26.396Z,4.55
2023-05-17T05:01:52.856Z,4.63
2023-05-17T18:19:04.429Z,12.75
2023-05-17T18:21:31.086Z,13.85
2023-05-17T18:41:05.881Z,13.80
2023-05-17T18:43:32.520Z,13.55
2023-05-17T19:08:20.860Z,14.32
2023-05-17T19:18:15.000Z,13.15
2023-05-17T19:25:35.984Z,12.73
2023-05-17T19:33:04.903Z,12.77
2023-05-17T19:35:34.324Z,12.88
2023-05-17T19:38:00.777Z,11.10
2023-05-17T19:40:27.328Z,11.65
2023-05-17T19:42:55.414Z,11.70
2023-05-17T19:45:21.934Z,11.45
2023-05-17T19:47:48.624Z,11.18
2023-05-17T19:50:17.302Z,10.80
2023-05-17T19:52:43.956Z,10.27
2023-05-17T19:55:18.174Z,11.02
2023-05-17T19:57:44.759Z,10.93
2023-05-17T20:00:11.566Z,10.80
2023-05-17T20:02:41.647Z,11.82
2023-05-17T20:05:08.444Z,10.77
2023-05-17T20:07:37.068Z,10.40
2023-05-17T20:10:04.623Z,9.50
2023-05-17T20:12:31.127Z,8.85
2023-05-17T20:15:04.118Z,7.55
2023-05-17T20:17:30.724Z,7.78
2023-05-17T20:19:57.275Z,7.05
2023-05-17T20:22:25.164Z,6.55
2023-05-17T20:24:51.723Z,5.78
2023-05-17T20:27:18.236Z,5.15
2023-05-17T20:29:46.460Z,5.15
2023-05-17T20:32:12.973Z,4.70
2023-05-17T20:34:47.128Z,4.75
2023-05-17T20:37:13.684Z,4.05
2023-05-17T20:39:40.210Z,3.70
2023-05-17T20:42:09.370Z,4.18
2023-05-17T20:44:35.948Z,3.45
2023-05-17T20:47:02.547Z,3.17
2023-05-17T20:49:35.164Z,3.70
2023-05-17T20:52:03.392Z,2.92
2023-05-17T20:54:32.310Z,3.63
2023-05-17T20:56:58.821Z,3.88
2023-05-17T20:59:26.519Z,4.68
2023-05-17T21:01:54.006Z,4.78
2023-05-17T21:04:20.944Z,5.45
2023-05-17T21:06:48.601Z,5.05
2023-05-17T21:09:21.557Z,4.28
2023-05-17T21:11:50.014Z,4.20
2023-05-17T21:14:16.484Z,5.00
2023-05-17T21:16:42.963Z,4.90
2023-05-17T21:19:16.683Z,6.35
2023-05-17T21:21:43.252Z,5.50
2023-05-17T21:24:10.765Z,5.30
2023-05-17T21:26:40.677Z,6.78
2023-05-17T21:29:07.790Z,5.57
2023-05-17T21:31:35.258Z,6.85
2023-05-17T21:34:01.795Z,5.85
2023-05-17T21:36:29.243Z,6.32
2023-05-17T21:38:56.023Z,5.13
2023-05-17T21:41:22.779Z,5.90
2023-05-17T21:43:50.462Z,6.43
2023-05-17T21:46:17.053Z,5.90
2023-05-17T21:48:44.358Z,6.40
2023-05-17T21:51:11.733Z,6.53
2023-05-17T21:53:38.194Z,7.35
2023-05-17T21:56:05.815Z,5.65
2023-05-17T21:58:32.428Z,6.80
2023-05-17T22:01:00.443Z,6.72
2023-05-17T22:03:27.093Z,6.68
2023-05-17T22:05:54.512Z,7.55
2023-05-17T22:08:21.999Z,6.07
2023-05-17T22:10:50.197Z,6.70
2023-05-17T22:13:18.928Z,6.68
2023-05-17T22:15:45.490Z,8.10
2023-05-17T22:18:17.754Z,7.93
2023-05-17T22:20:44.342Z,7.70
2023-05-17T22:23:11.091Z,7.55
2023-05-17T22:25:38.045Z,8.30
2023-05-17T22:28:22.658Z,9.07
2023-05-17T22:30:50.047Z,9.30
2023-05-17T22:33:16.910Z,8.38
2023-05-17T22:35:43.442Z,9.25
2023-05-17T22:38:09.930Z,8.57
2023-05-17T22:40:40.342Z,9.25
2023-05-17T22:43:08.337Z,8.48
2023-05-17T22:45:36.102Z,7.97
2023-05-17T22:48:03.842Z,8.05
2023-05-17T22:50:32.173Z,8.50
2023-05-17T22:53:01.368Z,7.65
2023-05-17T22:55:29.643Z,8.40
2023-05-17T22:57:57.521Z,8.85
2023-05-17T23:00:27.566Z,8.07
2023-05-17T23:02:55.632Z,8.75
2023-05-17T23:05:25.590Z,8.85
2023-05-17T23:07:53.447Z,8.43
2023-05-17T23:10:21.736Z,8.27
2023-05-17T23:12:51.508Z,8.10
2023-05-17T23:15:20.786Z,9.02
2023-05-17T23:17:48.613Z,10.93
2023-05-17T23:20:16.649Z,11.63
2023-05-17T23:22:44.092Z,11.38
2023-05-17T23:25:11.893Z,10.55
2023-05-17T23:27:39.605Z,10.13
2023-05-17T23:30:07.795Z,10.85
2023-05-17T23:32:35.805Z,9.48
2023-05-17T23:35:12.187Z,10.93
2023-05-17T23:37:38.952Z,10.27
2023-05-17T23:40:06.965Z,10.75
2023-05-17T23:42:35.192Z,11.18
2023-05-17T23:45:02.318Z,11.27
2023-05-17T23:47:28.983Z,10.10
2023-05-17T23:49:56.970Z,9.77
2023-05-17T23:52:24.783Z,9.20
2023-05-17T23:54:51.446Z,7.93
2023-05-17T23:57:23.988Z,8.90
2023-05-17T23:59:51.779Z,10.20
